Time;durP1;ratioP1;P1;durP2;ratioP2;P2;SDS_P1;SDS_P2;PMS_P1;PMS_P2;Temp;Humidity;BMP_temperature;BMP_pressure;BME280_temperature;BME280_humidity;BME280_pressure;Samples;Min_cycle;Max_cycle;Signal;HPM_P1;HPM_P2
2021/06/17 00:02:08;;;;;;;0.60;0.10;;;20.60;59.50;;;;;;4928469;29;20586;-74
2021/06/17 00:04:36;;;;;;;0.95;0.32;;;20.80;58.30;;;;;;4930404;29;20091;-75
2021/06/17 00:07:03;;;;;;;0.03;0.00;;;20.90;59.20;;;;;;4928724;29;21038;-74
2021/06/17 00:09:31;;;;;;;0.40;0.20;;;21.00;57.90;;;;;;4929743;29;20092;-74
2021/06/17 00:12:01;;;;;;;0.82;0.20;;;20.60;54.60;;;;;;4921649;29;20063;-75
2021/06/17 00:14:31;;;;;;;0.50;0.20;;;20.20;56.80;;;;;;4923718;29;20063;-74
2021/06/17 00:17:01;;;;;;;0.80;0.00;;;20.40;56.40;;;;;;4925346;29;20027;-71
2021/06/17 00:19:29;;;;;;;0.10;0.10;;;20.30;56.80;;;;;;4924346;29;20031;-73
2021/06/17 00:21:57;;;;;;;0.75;0.20;;;20.50;58.00;;;;;;4929134;29;20118;-74
2021/06/17 00:24:25;;;;;;;0.20;0.10;;;20.70;57.30;;;;;;4930288;29;20110;-74
2021/06/17 00:26:53;;;;;;;0.20;0.10;;;20.60;54.00;;;;;;4927558;29;20438;-74
2021/06/17 00:29:20;;;;;;;0.65;0.10;;;20.40;55.70;;;;;;4925176;29;20475;-73
2021/06/17 00:31:48;;;;;;;0.10;0.10;;;20.50;56.00;;;;;;4925576;29;20394;-70
2021/06/17 00:34:16;;;;;;;2.10;0.20;;;20.80;56.40;;;;;;4927759;29;20020;-71
2021/06/17 00:36:43;;;;;;;0.10;0.10;;;21.10;54.60;;;;;;4927021;29;20147;-75
2021/06/17 00:39:11;;;;;;;1.02;0.10;;;20.80;52.60;;;;;;4926904;29;20047;-69
2021/06/17 00:41:41;;;;;;;0.93;0.10;;;20.80;52.20;;;;;;4928963;29;20055;-73
2021/06/17 00:44:08;;;;;;;0.15;0.10;;;21.10;53.90;;;;;;4928256;29;20039;-71
2021/06/17 00:46:36;;;;;;;1.40;0.20;;;21.00;53.50;;;;;;4925716;29;20036;-73
2021/06/17 00:49:05;;;;;;;0.85;0.20;;;21.10;49.90;;;;;;4929802;29;20083;-73
2021/06/17 00:51:33;;;;;;;0.95;0.30;;;20.80;50.70;;;;;;4927124;29;20023;-75
2021/06/17 00:54:01;;;;;;;1.55;0.10;;;20.70;51.90;;;;;;4929869;29;20051;-74
2021/06/17 00:56:29;;;;;;;1.85;0.20;;;21.00;53.70;;;;;;4926941;29;20055;-71
2021/06/17 00:58:57;;;;;;;2.05;0.10;;;21.40;51.70;;;;;;4929702;29;20427;-74
2021/06/17 01:01:25;;;;;;;0.30;0.10;;;21.70;52.80;;;;;;4929256;29;20055;-72
2021/06/17 01:03:52;;;;;;;0.20;0.20;;;22.00;49.50;;;;;;4920984;29;20086;-73
2021/06/17 01:06:19;;;;;;;0.30;0.10;;;22.10;50.40;;;;;;4931882;29;20438;-75
2021/06/17 01:08:47;;;;;;;0.38;0.20;;;22.60;47.20;;;;;;4924055;29;20134;-76
2021/06/17 01:11:37;;;;;;;0.85;0.15;;;22.30;46.00;;;;;;4927517;29;20036;-71
2021/06/17 01:14:29;;;;;;;0.43;0.20;;;22.00;49.60;;;;;;4929204;29;20032;-74
2021/06/17 01:17:17;;;;;;;0.47;0.20;;;22.10;48.30;;;;;;4932249;29;20027;-75
2021/06/17 01:20:02;;;;;;;0.20;0.10;;;22.30;46.80;;;;;;4923178;29;20379;-73
2021/06/17 01:22:41;;;;;;;0.30;0.17;;;22.30;48.90;;;;;;4927541;29;20043;-70
2021/06/17 01:25:14;;;;;;;0.30;0.30;;;22.50;47.50;;;;;;4923740;29;20274;-71
2021/06/17 01:27:51;;;;;;;1.48;0.50;;;22.10;45.30;;;;;;4924860;29;20767;-70
2021/06/17 01:30:20;;;;;;;0.22;0.15;;;22.10;46.40;;;;;;4922845;29;20028;-72
2021/06/17 01:32:58;;;;;;;0.10;0.10;;;22.20;46.40;;;;;;4911237;29;20063;-70
2021/06/17 01:35:28;;;;;;;0.40;0.13;;;22.70;45.10;;;;;;4923684;29;20384;-70
2021/06/17 01:38:02;;;;;;;0.15;0.10;;;22.90;44.60;;;;;;4927973;29;20136;-70
2021/06/17 01:40:32;;;;;;;0.40;0.15;;;22.70;45.70;;;;;;4925062;29;20044;-72
2021/06/17 01:43:01;;;;;;;2.65;0.20;;;22.80;44.70;;;;;;4928297;29;20047;-75
2021/06/17 01:45:30;;;;;;;0.15;0.10;;;22.20;44.70;;;;;;4927429;29;20040;-73
2021/06/17 01:48:00;;;;;;;0.35;0.10;;;22.20;47.00;;;;;;4925807;29;20506;-72
2021/06/17 01:50:29;;;;;;;0.30;0.10;;;22.60;45.70;;;;;;4925913;29;20376;-72
2021/06/17 01:52:57;;;;;;;0.57;0.13;;;22.30;47.60;;;;;;4926572;29;20027;-73
2021/06/17 01:55:35;;;;;;;0.10;0.10;;;22.70;45.50;;;;;;4924868;29;20032;-72
2021/06/17 01:58:05;;;;;;;1.08;0.20;;;22.50;44.00;;;;;;4926145;29;20036;-71
2021/06/17 02:00:33;;;;;;;0.75;0.17;;;21.70;45.30;;;;;;4927724;29;20047;-72
2021/06/17 02:03:03;;;;;;;0.20;0.10;;;22.10;46.20;;;;;;4924327;29;20035;-71
2021/06/17 02:05:31;;;;;;;0.43;0.20;;;22.70;45.10;;;;;;4925438;29;20044;-71
2021/06/17 02:08:04;;;;;;;0.60;0.20;;;23.00;45.40;;;;;;4923840;29;20048;-72
2021/06/17 02:10:33;;;;;;;0.50;0.10;;;22.90;43.50;;;;;;4909298;29;21034;-70
2021/06/17 02:13:01;;;;;;;0.10;0.10;;;22.70;46.20;;;;;;4928824;29;20059;-73
2021/06/17 02:15:31;;;;;;;1.60;0.28;;;22.90;43.80;;;;;;4924435;29;20028;-71
2021/06/17 02:18:01;;;;;;;0.10;0.10;;;22.80;43.40;;;;;;4931335;29;20039;-71
2021/06/17 02:20:28;;;;;;;0.28;0.10;;;22.30;44.20;;;;;;4931822;29;20136;-71
2021/06/17 02:23:05;;;;;;;0.32;0.10;;;22.00;44.80;;;;;;4929222;29;20024;-70
2021/06/17 02:25:34;;;;;;;1.45;0.25;;;22.10;45.40;;;;;;4927502;29;20047;-71
2021/06/17 02:28:08;;;;;;;0.93;0.10;;;22.80;44.60;;;;;;4930388;29;20036;-73
2021/06/17 02:30:37;;;;;;;0.28;0.17;;;23.00;44.20;;;;;;4927093;29;20319;-73
2021/06/17 02:33:07;;;;;;;0.10;0.10;;;23.50;46.00;;;;;;4927657;29;20589;-73
2021/06/17 02:35:36;;;;;;;1.08;0.25;;;24.10;43.40;;;;;;4924213;29;20035;-74
2021/06/17 02:38:07;;;;;;;0.85;0.20;;;24.10;43.50;;;;;;4926056;29;20115;-71
2021/06/17 02:40:41;;;;;;;0.10;0.10;;;23.40;41.80;;;;;;4906086;29;20054;-72
2021/06/17 02:43:15;;;;;;;1.17;0.40;;;23.00;44.50;;;;;;4925988;29;20055;-71
2021/06/17 02:45:44;;;;;;;1.13;0.35;;;23.10;44.00;;;;;;4923485;29;20040;-70
2021/06/17 02:48:12;;;;;;;0.32;0.32;;;23.20;44.50;;;;;;4923998;29;20038;-71
2021/06/17 02:50:40;;;;;;;0.20;0.10;;;22.60;44.90;;;;;;4925091;29;20028;-72
2021/06/17 02:53:08;;;;;;;1.13;0.10;;;22.60;45.60;;;;;;4924975;29;20031;-74
2021/06/17 02:55:37;;;;;;;0.00;0.00;;;22.60;44.80;;;;;;4925554;29;20120;-70
2021/06/17 02:58:30;;;;;;;1.25;0.10;;;22.60;45.70;;;;;;4923754;29;20042;-71
2021/06/17 03:01:06;;;;;;;1.25;0.98;;;22.70;44.80;;;;;;4923856;29;20058;-72
2021/06/17 03:03:34;;;;;;;;;;;22.00;45.40;;;;;;4921672;29;20578;-72
2021/06/17 03:06:18;;;;;;;0.15;0.10;;;21.20;46.50;;;;;;4923618;29;19919;-70
2021/06/17 03:08:55;;;;;;;0.13;0.13;;;20.70;47.00;;;;;;4925542;29;20031;-73
2021/06/17 03:11:25;;;;;;;0.15;0.10;;;20.20;48.40;;;;;;4924465;29;20094;-72
2021/06/17 03:13:57;;;;;;;1.10;0.20;;;19.90;48.00;;;;;;4926451;29;20098;-72
2021/06/17 03:16:34;;;;;;;0.00;0.00;;;19.40;50.80;;;;;;4926864;29;20031;-73
2021/06/17 03:19:03;;;;;;;0.22;0.05;;;19.20;52.80;;;;;;4925935;29;20083;-72
2021/06/17 03:21:35;;;;;;;0.10;0.10;;;19.20;51.50;;;;;;4925087;29;20114;-72
2021/06/17 03:24:05;;;;;;;0.25;0.00;;;18.70;53.30;;;;;;4926495;29;20028;-74
2021/06/17 03:26:35;;;;;;;0.52;0.10;;;18.50;52.80;;;;;;4926283;29;20036;-75
2021/06/17 03:29:04;;;;;;;0.30;0.08;;;18.40;54.00;;;;;;4925581;29;20115;-72
2021/06/17 03:31:33;;;;;;;1.05;0.10;;;18.40;53.90;;;;;;4923888;29;20054;-73
2021/06/17 03:34:03;;;;;;;0.57;0.08;;;18.40;53.90;;;;;;4926956;29;20130;-73
2021/06/17 03:36:32;;;;;;;0.10;0.00;;;18.60;52.70;;;;;;4927192;29;20034;-73
2021/06/17 03:39:05;;;;;;;0.30;0.00;;;18.40;54.00;;;;;;4926447;29;20059;-72
2021/06/17 03:41:33;;;;;;;1.52;0.20;;;18.30;54.50;;;;;;4926500;29;20036;-73
2021/06/17 03:44:02;;;;;;;0.10;0.10;;;18.20;55.00;;;;;;4926963;29;20134;-73
2021/06/17 03:46:31;;;;;;;0.10;0.03;;;18.20;54.40;;;;;;4926599;29;20050;-73
2021/06/17 03:49:00;;;;;;;1.88;0.10;;;18.30;54.20;;;;;;4928532;29;20028;-73
2021/06/17 03:51:28;;;;;;;0.32;0.10;;;18.40;55.50;;;;;;4924129;29;20036;-73
2021/06/17 03:53:56;;;;;;;1.08;0.10;;;18.50;56.20;;;;;;4930344;29;20027;-72
2021/06/17 03:56:24;;;;;;;0.08;0.00;;;18.60;55.10;;;;;;4923692;29;20054;-73
2021/06/17 03:58:52;;;;;;;0.10;0.05;;;18.50;54.30;;;;;;4925453;29;20028;-73
2021/06/17 04:01:20;;;;;;;0.55;0.10;;;18.30;55.70;;;;;;4924583;29;20051;-73
2021/06/17 04:03:50;;;;;;;1.33;0.10;;;18.00;56.40;;;;;;4925287;29;20122;-73
2021/06/17 04:06:18;;;;;;;0.70;0.10;;;18.00;56.10;;;;;;4923276;29;20044;-72
2021/06/17 04:08:50;;;;;;;0.63;0.10;;;17.70;56.40;;;;;;4922606;29;20029;-72
2021/06/17 04:11:21;;;;;;;0.10;0.03;;;17.60;56.50;;;;;;4929112;29;20124;-73
2021/06/17 04:13:50;;;;;;;0.30;0.20;;;17.50;57.30;;;;;;4925534;29;20347;-73
2021/06/17 04:16:25;;;;;;;1.35;0.15;;;17.40;57.30;;;;;;4920934;29;20590;-74
2021/06/17 04:18:54;;;;;;;0.10;0.00;;;17.60;59.00;;;;;;4925583;29;20047;-73
2021/06/17 04:21:24;;;;;;;0.65;0.20;;;17.40;57.00;;;;;;4927061;29;20164;-72
2021/06/17 04:23:58;;;;;;;0.00;0.00;;;17.40;58.10;;;;;;4924293;29;20390;-71
2021/06/17 04:26:27;;;;;;;0.10;0.00;;;17.30;58.50;;;;;;4925120;29;20043;-75
2021/06/17 04:28:55;;;;;;;1.45;0.05;;;17.40;59.00;;;;;;4927330;29;20027;-72
2021/06/17 04:31:24;;;;;;;0.77;0.10;;;17.40;58.50;;;;;;4924443;29;20659;-72
2021/06/17 04:33:52;;;;;;;0.28;0.10;;;17.40;59.80;;;;;;4931927;29;20051;-72
2021/06/17 04:36:20;;;;;;;0.10;0.00;;;17.40;60.10;;;;;;4923231;29;20031;-71
2021/06/17 04:38:48;;;;;;;0.55;0.03;;;17.40;59.20;;;;;;4924725;29;20032;-74
2021/06/17 04:41:17;;;;;;;1.20;0.10;;;17.40;59.80;;;;;;4928390;29;20024;-77
2021/06/17 04:43:45;;;;;;;0.40;0.10;;;17.40;59.80;;;;;;4923096;29;20401;-74
2021/06/17 04:46:14;;;;;;;0.22;0.00;;;17.40;60.00;;;;;;4924217;29;20038;-75
2021/06/17 04:48:43;;;;;;;0.30;0.10;;;17.50;58.20;;;;;;4907985;29;20055;-72
2021/06/17 04:51:12;;;;;;;0.32;0.10;;;17.60;58.40;;;;;;4922749;29;20396;-74
2021/06/17 04:53:40;;;;;;;0.10;0.10;;;17.60;59.60;;;;;;4924099;29;20364;-72
2021/06/17 04:56:07;;;;;;;1.23;0.20;;;17.50;59.50;;;;;;4922434;29;20047;-71
2021/06/17 04:58:36;;;;;;;0.40;0.30;;;17.60;60.40;;;;;;4924358;29;20044;-71
2021/06/17 05:01:07;;;;;;;0.10;0.10;;;17.50;60.50;;;;;;4923796;29;20077;-71
2021/06/17 05:03:36;;;;;;;0.73;0.10;;;17.40;60.20;;;;;;4921503;28;20041;-74
2021/06/17 05:06:04;;;;;;;0.73;0.10;;;17.40;60.70;;;;;;4921044;29;20142;-72
2021/06/17 05:11:17;;;;;;;1.10;0.10;;;17.10;59.70;;;;;;4929608;29;20557;-71
2021/06/17 05:13:44;;;;;;;0.35;0.10;;;17.00;60.00;;;;;;4931135;29;20035;-69
2021/06/17 05:16:12;;;;;;;0.30;0.13;;;17.00;60.00;;;;;;4928800;29;20512;-76
2021/06/17 05:18:39;;;;;;;2.03;0.85;;;16.90;60.40;;;;;;4927101;28;20064;-77
2021/06/17 05:21:09;;;;;;;0.35;0.10;;;16.80;61.10;;;;;;4930299;29;20090;-73
2021/06/17 05:23:39;;;;;;;0.52;0.17;;;16.80;61.30;;;;;;4929459;29;20028;-75
2021/06/17 05:26:07;;;;;;;0.17;0.10;;;16.70;60.30;;;;;;4925845;29;20123;-76
2021/06/17 05:28:35;;;;;;;1.27;0.10;;;16.70;61.50;;;;;;4929592;29;20035;-73
2021/06/17 05:31:07;;;;;;;0.28;0.15;;;16.70;60.80;;;;;;4924825;29;20039;-75
2021/06/17 05:33:34;;;;;;;0.40;0.20;;;16.70;61.80;;;;;;4926700;29;20113;-75
2021/06/17 05:36:03;;;;;;;1.23;0.13;;;16.70;61.70;;;;;;4927898;29;21115;-76
2021/06/17 05:38:32;;;;;;;1.02;0.43;;;16.80;62.00;;;;;;4924974;29;20062;-73
2021/06/17 05:41:00;;;;;;;0.38;0.17;;;16.70;61.30;;;;;;4924394;29;20043;-74
2021/06/17 05:43:28;;;;;;;0.63;0.10;;;16.70;61.40;;;;;;4926118;29;21801;-74
2021/06/17 05:45:55;;;;;;;0.10;0.10;;;16.70;62.10;;;;;;4924951;28;20040;-76
2021/06/17 05:48:23;;;;;;;1.02;0.20;;;16.60;62.00;;;;;;4925127;28;20126;-72
2021/06/17 05:50:50;;;;;;;1.90;0.30;;;16.60;62.10;;;;;;4926925;29;20047;-73
2021/06/17 05:53:18;;;;;;;2.08;0.40;;;16.50;62.50;;;;;;4928178;29;20063;-72
2021/06/17 05:55:45;;;;;;;0.35;0.10;;;16.50;62.60;;;;;;4923459;29;20597;-74
2021/06/17 05:58:13;;;;;;;0.47;0.20;;;16.50;62.60;;;;;;4928305;29;20051;-73
2021/06/17 06:00:42;;;;;;;1.13;0.20;;;16.60;62.40;;;;;;4928730;29;20058;-75
2021/06/17 06:03:09;;;;;;;0.22;0.10;;;16.60;62.60;;;;;;4926880;29;20063;-75
2021/06/17 06:05:37;;;;;;;0.05;0.00;;;16.70;63.10;;;;;;4925605;29;20024;-73
2021/06/17 06:08:13;;;;;;;0.40;0.28;;;16.70;63.80;;;;;;4926092;29;20032;-74
2021/06/17 06:10:45;;;;;;;0.13;0.10;;;16.70;63.10;;;;;;4929545;29;20052;-74
2021/06/17 06:13:15;;;;;;;0.55;0.10;;;16.90;62.60;;;;;;4930697;29;20028;-72
2021/06/17 06:15:43;;;;;;;0.20;0.13;;;17.00;62.40;;;;;;4928351;29;20147;-74
2021/06/17 06:18:13;;;;;;;0.85;0.20;;;16.80;62.30;;;;;;4929405;29;20039;-75
2021/06/17 06:20:43;;;;;;;0.38;0.25;;;16.70;62.30;;;;;;4923234;29;21035;-73
2021/06/17 06:23:11;;;;;;;0.10;0.10;;;16.70;63.20;;;;;;4927265;29;20125;-75
2021/06/17 06:25:44;;;;;;;0.50;0.20;;;16.80;62.80;;;;;;4922402;29;20019;-74
2021/06/17 06:28:12;;;;;;;0.75;0.40;;;16.90;62.70;;;;;;4924722;29;20050;-74
2021/06/17 06:30:39;;;;;;;0.15;0.13;;;16.90;62.30;;;;;;4925952;29;20031;-73
2021/06/17 06:33:07;;;;;;;0.68;0.20;;;16.70;62.90;;;;;;4925512;29;20102;-72
2021/06/17 06:35:35;;;;;;;0.25;0.20;;;16.50;63.50;;;;;;4925608;29;20031;-72
2021/06/17 06:38:03;;;;;;;0.90;0.20;;;16.30;63.60;;;;;;4924673;29;20118;-76
2021/06/17 06:40:31;;;;;;;0.45;0.20;;;16.20;64.40;;;;;;4922416;29;20035;-72
2021/06/17 06:42:58;;;;;;;0.40;0.30;;;16.10;64.80;;;;;;4923899;29;21529;-72
2021/06/17 06:45:26;;;;;;;0.10;0.10;;;16.00;64.70;;;;;;4924988;29;20046;-71
2021/06/17 06:47:54;;;;;;;1.27;0.15;;;15.90;64.70;;;;;;4924466;29;20036;-75
2021/06/17 06:50:22;;;;;;;0.20;0.20;;;15.80;65.40;;;;;;4926238;29;20026;-74
2021/06/17 06:52:50;;;;;;;0.60;0.40;;;15.70;65.20;;;;;;4923997;29;20636;-72
2021/06/17 06:55:18;;;;;;;0.22;0.17;;;15.70;65.80;;;;;;4924748;29;20035;-76
2021/06/17 06:57:47;;;;;;;0.50;0.10;;;15.60;65.70;;;;;;4927318;29;20035;-76
2021/06/17 07:00:15;;;;;;;0.32;0.30;;;15.60;66.10;;;;;;4925108;29;20236;-74
2021/06/17 07:02:43;;;;;;;1.38;0.17;;;15.60;66.40;;;;;;4925581;29;20043;-74
2021/06/17 07:05:11;;;;;;;0.28;0.10;;;15.60;66.40;;;;;;4926005;28;20106;-74
2021/06/17 07:07:40;;;;;;;0.17;0.10;;;15.50;66.70;;;;;;4925046;29;20043;-77
2021/06/17 07:10:08;;;;;;;0.80;0.20;;;15.50;66.40;;;;;;4925413;29;20154;-73
2021/06/17 07:12:35;;;;;;;1.00;0.20;;;15.50;66.80;;;;;;4924829;29;20034;-74
2021/06/17 07:15:03;;;;;;;2.45;0.68;;;15.40;67.40;;;;;;4926646;29;20162;-74
2021/06/17 07:17:31;;;;;;;2.17;0.52;;;15.30;67.20;;;;;;4922345;29;20355;-75
2021/06/17 07:19:58;;;;;;;2.05;0.40;;;15.20;67.80;;;;;;4926004;29;20059;-74
2021/06/17 07:22:27;;;;;;;0.95;0.22;;;15.10;68.30;;;;;;4926063;29;20039;-74
2021/06/17 07:24:54;;;;;;;0.70;0.40;;;15.00;68.50;;;;;;4918342;29;20036;-73
2021/06/17 07:27:23;;;;;;;1.38;0.30;;;15.00;68.50;;;;;;4922301;29;20040;-73
2021/06/17 07:29:52;;;;;;;0.55;0.20;;;14.90;68.60;;;;;;4924663;29;20040;-72
2021/06/17 07:32:20;;;;;;;0.40;0.30;;;14.80;69.40;;;;;;4925608;29;20036;-74
2021/06/17 07:34:47;;;;;;;0.57;0.35;;;14.70;70.60;;;;;;4924234;29;20040;-73
2021/06/17 07:37:15;;;;;;;2.28;0.63;;;14.70;71.00;;;;;;4924559;29;20382;-72
2021/06/17 07:39:44;;;;;;;1.40;0.43;;;14.70;72.00;;;;;;4912670;29;20039;-73
2021/06/17 07:42:11;;;;;;;1.88;0.88;;;14.60;71.90;;;;;;4923019;29;20366;-73
2021/06/17 07:44:39;;;;;;;1.85;0.82;;;14.70;71.60;;;;;;4926550;29;20028;-74
2021/06/17 07:47:07;;;;;;;1.20;0.80;;;14.70;71.80;;;;;;4911427;29;20035;-73
2021/06/17 07:49:34;;;;;;;2.25;0.60;;;14.70;71.50;;;;;;4924371;29;20034;-74
2021/06/17 07:52:02;;;;;;;1.30;0.73;;;14.80;71.40;;;;;;4924388;29;20731;-71
2021/06/17 07:54:29;;;;;;;0.98;0.43;;;14.70;70.60;;;;;;4923078;29;20118;-74
2021/06/17 07:56:57;;;;;;;1.73;0.60;;;14.70;70.80;;;;;;4924956;29;20027;-73
2021/06/17 07:59:26;;;;;;;1.00;0.55;;;14.70;71.50;;;;;;4923950;29;20032;-73
2021/06/17 08:01:54;;;;;;;3.05;0.70;;;14.60;72.00;;;;;;4923723;29;20051;-73
2021/06/17 08:04:26;;;;;;;0.60;0.35;;;14.50;71.90;;;;;;4918668;29;20449;-73
2021/06/17 08:06:54;;;;;;;0.98;0.47;;;14.40;72.40;;;;;;4923422;29;20401;-71
2021/06/17 08:09:22;;;;;;;1.30;0.80;;;14.40;72.90;;;;;;4927433;29;20132;-73
2021/06/17 08:11:52;;;;;;;9.25;3.78;;;14.40;72.90;;;;;;4920625;29;20498;-74
2021/06/17 08:14:24;;;;;;;21.48;6.45;;;14.30;72.90;;;;;;4922434;29;20031;-71
2021/06/17 08:16:54;;;;;;;10.80;3.55;;;14.30;72.50;;;;;;4924908;29;20150;-73
2021/06/17 08:19:32;;;;;;;13.90;4.72;;;14.30;72.50;;;;;;4925539;29;20471;-73
2021/06/17 08:22:08;;;;;;;13.07;3.75;;;14.30;72.90;;;;;;4922842;29;20057;-72
2021/06/17 08:24:39;;;;;;;12.45;4.05;;;14.20;73.00;;;;;;4924693;29;20043;-72
2021/06/17 08:27:08;;;;;;;6.53;1.65;;;14.10;73.50;;;;;;4925992;29;20387;-71
2021/06/17 08:29:35;;;;;;;20.30;5.20;;;14.10;73.80;;;;;;4925105;29;20028;-71
2021/06/17 08:32:04;;;;;;;32.70;8.32;;;14.10;74.20;;;;;;4923081;29;20031;-71
2021/06/17 08:34:31;;;;;;;37.85;11.52;;;14.00;74.30;;;;;;4921625;29;20020;-72
2021/06/17 08:37:00;;;;;;;8.68;1.58;;;13.90;74.80;;;;;;4921534;29;20027;-71
2021/06/17 08:39:31;;;;;;;1.55;0.70;;;14.00;74.70;;;;;;4924513;29;20390;-73
2021/06/17 08:41:59;;;;;;;2.55;0.77;;;13.90;74.10;;;;;;4925856;29;20059;-72
2021/06/17 08:44:28;;;;;;;2.80;1.33;;;14.00;74.50;;;;;;4928582;29;20027;-72
2021/06/17 08:46:56;;;;;;;2.38;1.20;;;13.90;74.50;;;;;;4908662;29;20036;-71
2021/06/17 08:49:24;;;;;;;1.45;0.50;;;13.90;74.80;;;;;;4929220;29;20031;-73
2021/06/17 08:51:54;;;;;;;1.60;0.45;;;13.90;74.80;;;;;;4927190;29;20039;-71
2021/06/17 08:54:24;;;;;;;1.63;0.65;;;13.90;75.00;;;;;;4928524;29;20039;-73
2021/06/17 08:56:52;;;;;;;2.88;0.50;;;13.90;74.80;;;;;;4926815;29;20028;-71
2021/06/17 08:59:29;;;;;;;1.67;0.50;;;13.80;74.90;;;;;;4925204;29;20142;-73
2021/06/17 09:02:00;;;;;;;1.65;0.50;;;13.70;75.20;;;;;;4922833;29;20578;-71
2021/06/17 09:04:30;;;;;;;1.83;0.75;;;13.70;75.40;;;;;;4923081;29;20032;-73
2021/06/17 09:07:01;;;;;;;2.05;0.60;;;13.70;75.60;;;;;;4922756;29;20451;-73
2021/06/17 09:09:45;;;;;;;3.22;0.98;;;13.60;75.70;;;;;;4928975;29;20119;-72
2021/06/17 09:12:22;;;;;;;2.28;0.93;;;13.60;75.90;;;;;;4925844;29;20398;-72
2021/06/17 09:14:55;;;;;;;1.08;0.57;;;13.70;75.20;;;;;;4928143;29;20134;-72
2021/06/17 09:17:23;;;;;;;0.82;0.73;;;13.80;75.00;;;;;;4911625;29;20499;-72
2021/06/17 09:19:53;;;;;;;1.65;0.82;;;13.70;75.30;;;;;;4927616;29;20032;-72
2021/06/17 09:22:23;;;;;;;1.38;0.63;;;13.70;75.50;;;;;;4924555;29;20036;-73
2021/06/17 09:24:54;;;;;;;1.52;0.40;;;13.60;76.00;;;;;;4924648;29;20143;-73
2021/06/17 09:27:38;;;;;;;0.88;0.63;;;13.50;76.40;;;;;;4926071;29;20035;-75
2021/06/17 09:30:11;;;;;;;1.70;0.55;;;13.50;76.90;;;;;;4923969;29;20039;-72
2021/06/17 09:32:48;;;;;;;1.73;0.70;;;13.40;76.80;;;;;;4927981;29;20059;-73
2021/06/17 09:35:17;;;;;;;2.00;1.13;;;13.40;77.20;;;;;;4927099;29;20031;-70
2021/06/17 09:37:45;;;;;;;0.88;0.68;;;13.30;77.50;;;;;;4928223;29;20086;-71
2021/06/17 09:40:39;;;;;;;2.40;0.60;;;13.30;77.50;;;;;;4926155;29;20040;-73
2021/06/17 09:43:27;;;;;;;1.40;0.50;;;13.30;77.60;;;;;;4926857;29;20032;-72
2021/06/17 09:46:04;;;;;;;0.80;0.50;;;13.30;77.60;;;;;;4924594;29;20356;-76
2021/06/17 09:48:35;;;;;;;1.33;0.60;;;13.30;77.60;;;;;;4926945;29;20570;-73
2021/06/17 09:51:24;;;;;;;1.45;0.70;;;13.30;78.10;;;;;;4925937;29;20023;-75
2021/06/17 09:53:54;;;;;;;2.53;0.73;;;13.30;78.10;;;;;;4927121;29;20031;-73
2021/06/17 09:56:36;;;;;;;2.58;1.08;;;13.20;78.60;;;;;;4925009;29;20501;-75
2021/06/17 09:59:05;;;;;;;2.08;0.93;;;13.10;78.80;;;;;;4923796;29;20407;-75
2021/06/17 10:01:38;;;;;;;1.85;0.98;;;13.00;80.60;;;;;;4927767;29;20051;-74
2021/06/17 10:04:10;;;;;;;1.25;0.68;;;12.90;80.70;;;;;;4925777;29;20047;-75
2021/06/17 10:06:41;;;;;;;2.53;1.05;;;12.80;82.10;;;;;;4925024;29;20032;-74
2021/06/17 10:09:16;;;;;;;1.85;0.90;;;12.60;81.50;;;;;;4926495;29;20043;-75
2021/06/17 10:11:44;;;;;;;1.25;0.75;;;12.50;82.30;;;;;;4924559;29;20032;-74
2021/06/17 10:14:13;;;;;;;1.73;1.30;;;12.50;81.60;;;;;;4920192;29;21653;-73
2021/06/17 10:16:44;;;;;;;2.13;0.85;;;12.50;81.60;;;;;;4925467;29;20059;-73
2021/06/17 10:19:13;;;;;;;1.05;0.70;;;12.60;81.60;;;;;;4923188;29;20040;-72
2021/06/17 10:21:42;;;;;;;1.90;0.90;;;12.60;81.20;;;;;;4925314;29;20028;-73
2021/06/17 10:24:29;;;;;;;2.53;0.55;;;12.60;81.50;;;;;;4921018;29;20042;-73
2021/06/17 10:27:06;;;;;;;1.00;0.47;;;12.60;81.30;;;;;;4922774;29;20104;-72
2021/06/17 10:29:35;;;;;;;1.42;0.50;;;12.70;80.90;;;;;;4923074;29;20091;-73
2021/06/17 10:32:04;;;;;;;0.85;0.60;;;12.80;80.90;;;;;;4927358;29;20040;-73
2021/06/17 10:34:35;;;;;;;1.15;0.50;;;12.80;80.60;;;;;;4929382;29;21017;-71
2021/06/17 10:37:29;;;;;;;1.23;0.90;;;12.80;80.60;;;;;;4926332;29;20479;-70
2021/06/17 10:40:25;;;;;;;0.85;0.40;;;12.80;80.70;;;;;;4908568;29;20028;-72
2021/06/17 10:42:57;;;;;;;0.65;0.30;;;12.80;80.50;;;;;;4921340;29;20071;-71
2021/06/17 10:45:33;;;;;;;0.70;0.43;;;12.90;80.20;;;;;;4928738;29;20047;-70
2021/06/17 10:48:14;;;;;;;0.90;0.40;;;12.90;79.80;;;;;;4926530;29;20506;-73
2021/06/17 10:50:46;;;;;;;1.52;0.50;;;13.00;79.90;;;;;;4929634;29;20079;-71
2021/06/17 10:53:20;;;;;;;3.25;0.60;;;13.00;80.00;;;;;;4924852;29;20044;-70
2021/06/17 10:55:56;;;;;;;0.77;0.40;;;13.00;79.90;;;;;;4926333;29;20024;-72
2021/06/17 10:58:42;;;;;;;0.40;0.20;;;13.00;79.60;;;;;;4925577;29;20038;-71
2021/06/17 11:01:27;;;;;;;0.40;0.20;;;13.00;79.50;;;;;;4925246;29;21087;-73
2021/06/17 11:04:02;;;;;;;0.82;0.45;;;13.10;79.10;;;;;;4924934;29;20051;-71
2021/06/17 11:06:55;;;;;;;1.40;0.60;;;13.10;79.10;;;;;;4924222;29;20486;-72
2021/06/17 11:09:45;;;;;;;1.55;0.32;;;13.00;79.20;;;;;;4924617;29;20521;-72
2021/06/17 11:12:19;;;;;;;0.22;0.20;;;13.00;79.30;;;;;;4924656;29;20031;-69
2021/06/17 11:14:49;;;;;;;0.45;0.30;;;12.90;79.40;;;;;;4924233;29;20035;-71
2021/06/17 11:17:32;;;;;;;0.82;0.40;;;12.80;79.60;;;;;;4922762;29;20335;-73
2021/06/17 11:22:48;;;;;;;1.60;0.60;;;12.80;80.30;;;;;;4925126;29;20446;-72
2021/06/17 11:25:18;;;;;;;1.23;0.40;;;12.70;80.70;;;;;;4923603;29;20038;-73
2021/06/17 11:28:00;;;;;;;0.73;0.20;;;12.60;81.30;;;;;;4923208;29;20047;-72
2021/06/17 11:30:39;;;;;;;0.50;0.30;;;12.40;81.90;;;;;;4922721;29;20545;-71
2021/06/17 11:33:19;;;;;;;1.17;0.50;;;12.20;82.50;;;;;;4923502;29;20099;-72
2021/06/17 11:35:51;;;;;;;4.05;1.25;;;12.00;83.70;;;;;;4924286;29;20024;-72
2021/06/17 11:38:27;;;;;;;2.90;0.77;;;11.90;84.40;;;;;;4923611;29;20390;-74
2021/06/17 11:40:54;;;;;;;;;;;11.80;85.60;;;;;;4926275;29;20138;-71
2021/06/17 11:43:29;;;;;;;1.17;0.80;;;11.70;85.90;;;;;;4924354;29;19972;-72
2021/06/17 11:45:57;;;;;;;3.15;0.95;;;11.60;86.90;;;;;;4922570;29;20111;-71
2021/06/17 11:48:26;;;;;;;2.13;1.20;;;11.50;86.90;;;;;;4926364;29;20142;-72
2021/06/17 11:50:56;;;;;;;1.80;1.10;;;11.40;87.90;;;;;;4922822;29;20605;-72
2021/06/17 11:53:25;;;;;;;3.42;1.20;;;11.40;88.30;;;;;;4924878;29;20039;-71
2021/06/17 11:55:55;;;;;;;1.30;0.80;;;11.30;88.90;;;;;;4926123;29;20513;-71
2021/06/17 11:58:31;;;;;;;1.38;0.70;;;11.30;88.60;;;;;;4924412;29;20036;-72
2021/06/17 12:01:07;;;;;;;2.55;0.80;;;11.20;88.80;;;;;;4924109;29;20394;-72
2021/06/17 12:03:34;;;;;;;0.82;0.50;;;11.20;90.00;;;;;;4925321;29;20040;-71
2021/06/17 12:06:19;;;;;;;1.30;0.60;;;11.30;87.50;;;;;;4927148;29;20031;-70
2021/06/17 12:09:01;;;;;;;1.98;0.77;;;11.50;86.00;;;;;;4928306;29;20059;-72
2021/06/17 12:11:28;;;;;;;0.85;0.55;;;11.60;85.80;;;;;;4922812;29;20027;-73
2021/06/17 12:13:56;;;;;;;0.70;0.40;;;11.70;85.10;;;;;;4926967;29;20039;-72
2021/06/17 12:16:23;;;;;;;1.27;0.60;;;11.80;83.70;;;;;;4926964;29;20043;-71
2021/06/17 12:18:51;;;;;;;1.05;0.52;;;11.80;83.40;;;;;;4932762;29;20031;-72
2021/06/17 12:21:44;;;;;;;1.13;0.73;;;11.80;83.30;;;;;;4924648;29;20031;-71
2021/06/17 12:24:12;;;;;;;0.52;0.30;;;11.70;83.70;;;;;;4927336;29;20028;-72
2021/06/17 12:26:43;;;;;;;1.20;0.40;;;11.70;82.50;;;;;;4929070;29;20546;-74
2021/06/17 12:29:12;;;;;;;0.90;0.28;;;11.90;82.00;;;;;;4930907;29;20071;-72
2021/06/17 12:31:41;;;;;;;1.02;0.47;;;12.00;81.00;;;;;;4927816;29;20047;-73
2021/06/17 12:34:14;;;;;;;0.28;0.20;;;12.10;80.50;;;;;;4926294;29;20078;-72
2021/06/17 12:36:42;;;;;;;0.75;0.28;;;12.20;79.80;;;;;;4926977;29;20457;-73
2021/06/17 12:39:15;;;;;;;0.63;0.20;;;12.20;79.70;;;;;;4926333;29;20035;-73
2021/06/17 12:41:49;;;;;;;0.30;0.20;;;12.30;79.60;;;;;;4928086;29;20106;-72
2021/06/17 12:44:40;;;;;;;0.65;0.20;;;12.20;79.70;;;;;;4928809;29;20043;-73
2021/06/17 12:47:25;;;;;;;0.55;0.28;;;12.20;80.00;;;;;;4926540;29;20036;-73
2021/06/17 12:52:40;;;;;;;0.17;0.10;;;12.20;79.80;;;;;;4933306;29;20160;-73
2021/06/17 12:55:12;;;;;;;0.43;0.20;;;12.10;79.90;;;;;;4928335;29;20040;-72
2021/06/17 12:57:39;;;;;;;0.47;0.20;;;12.10;80.10;;;;;;4929792;29;22000;-73
2021/06/17 13:00:17;;;;;;;0.95;0.20;;;12.10;80.10;;;;;;4928272;29;20051;-72
2021/06/17 13:02:47;;;;;;;0.20;0.10;;;12.10;80.10;;;;;;4927575;29;20046;-73
2021/06/17 13:05:20;;;;;;;0.38;0.20;;;11.90;80.60;;;;;;4926092;29;20035;-71
2021/06/17 13:08:11;;;;;;;0.38;0.30;;;11.80;81.80;;;;;;4931246;29;20043;-73
2021/06/17 13:10:57;;;;;;;0.30;0.25;;;11.60;82.30;;;;;;4931653;29;20088;-73
2021/06/17 13:13:26;;;;;;;0.25;0.20;;;11.50;82.70;;;;;;4926492;29;20030;-71
2021/06/17 13:15:56;;;;;;;0.35;0.20;;;11.40;83.50;;;;;;4932124;29;20058;-72
2021/06/17 13:18:25;;;;;;;0.10;0.10;;;11.20;84.00;;;;;;4927600;29;20182;-72